sensor_id;sensor_type;location;lat;lon;timestamp;pressure;altitude;pressure_sealevel;temperature
12918;BMP180;6526;54.312;13.092;2023-04-01T00:00:56;100258.00;;;7.80
12918;BMP180;6526;54.312;13.092;2023-04-01T00:03:24;100251.00;;;7.80
12918;BMP180;6526;54.312;13.092;2023-04-01T00:05:50;100258.00;;;7.80
12918;BMP180;6526;54.312;13.092;2023-04-01T00:08:16;100266.00;;;7.80
12918;BMP180;6526;54.312;13.092;2023-04-01T00:10:43;100258.00;;;7.80
12918;BMP180;6526;54.312;13.092;2023-04-01T00:13:09;100266.00;;;7.80
12918;BMP180;6526;54.312;13.092;2023-04-01T00:15:35;100266.00;;;7.80
12918;BMP180;6526;54.312;13.092;2023-04-01T00:18:02;100261.00;;;7.90
12918;BMP180;6526;54.312;13.092;2023-04-01T00:20:28;100280.00;;;7.90
12918;BMP180;6526;54.312;13.092;2023-04-01T00:22:54;100273.00;;;7.80
12918;BMP180;6526;54.312;13.092;2023-04-01T00:25:20;100267.00;;;7.80
12918;BMP180;6526;54.312;13.092;2023-04-01T00:27:46;100251.00;;;7.70
12918;BMP180;6526;54.312;13.092;2023-04-01T00:30:13;100260.00;;;7.70
12918;BMP180;6526;54.312;13.092;2023-04-01T00:32:40;100269.00;;;7.70
12918;BMP180;6526;54.312;13.092;2023-04-01T00:35:06;100268.00;;;7.70
12918;BMP180;6526;54.312;13.092;2023-04-01T00:37:35;100261.00;;;7.70
12918;BMP180;6526;54.312;13.092;2023-04-01T00:40:03;100265.00;;;7.70
12918;BMP180;6526;54.312;13.092;2023-04-01T00:42:29;100280.00;;;7.60
12918;BMP180;6526;54.312;13.092;2023-04-01T00:44:56;100261.00;;;7.60
12918;BMP180;6526;54.312;13.092;2023-04-01T00:47:24;100275.00;;;7.60
12918;BMP180;6526;54.312;13.092;2023-04-01T00:49:52;100266.00;;;7.60
12918;BMP180;6526;54.312;13.092;2023-04-01T00:52:22;100275.00;;;7.60
12918;BMP180;6526;54.312;13.092;2023-04-01T00:54:54;100294.00;;;7.60
12918;BMP180;6526;54.312;13.092;2023-04-01T00:57:32;100286.00;;;7.60
12918;BMP180;6526;54.312;13.092;2023-04-01T01:00:00;100285.00;;;7.60
12918;BMP180;6526;54.312;13.092;2023-04-01T01:02:26;100287.00;;;7.70
12918;BMP180;6526;54.312;13.092;2023-04-01T01:04:52;100288.00;;;7.60
12918;BMP180;6526;54.312;13.092;2023-04-01T01:10:16;100299.00;;;7.50
12918;BMP180;6526;54.312;13.092;2023-04-01T01:12:45;100301.00;;;7.50
12918;BMP180;6526;54.312;13.092;2023-04-01T01:29:26;100302.00;;;7.40
12918;BMP180;6526;54.312;13.092;2023-04-01T01:37:17;100313.00;;;7.40
12918;BMP180;6526;54.312;13.092;2023-04-01T01:39:51;100311.00;;;7.40
12918;BMP180;6526;54.312;13.092;2023-04-01T01:42:19;100321.00;;;7.30
12918;BMP180;6526;54.312;13.092;2023-04-01T01:44:47;100311.00;;;7.30
12918;BMP180;6526;54.312;13.092;2023-04-01T01:47:15;100316.00;;;7.30
12918;BMP180;6526;54.312;13.092;2023-04-01T01:49:43;100310.00;;;7.30
12918;BMP180;6526;54.312;13.092;2023-04-01T01:52:10;100325.00;;;7.30
12918;BMP180;6526;54.312;13.092;2023-04-01T01:54:46;100321.00;;;7.40
12918;BMP180;6526;54.312;13.092;2023-04-01T01:57:13;100309.00;;;7.40
12918;BMP180;6526;54.312;13.092;2023-04-01T01:59:40;100313.00;;;7.40
12918;BMP180;6526;54.312;13.092;2023-04-01T02:02:09;100311.00;;;7.40
12918;BMP180;6526;54.312;13.092;2023-04-01T02:04:39;100314.00;;;7.50
12918;BMP180;6526;54.312;13.092;2023-04-01T02:07:11;100315.00;;;7.40
12918;BMP180;6526;54.312;13.092;2023-04-01T02:09:39;100324.00;;;7.30
12918;BMP180;6526;54.312;13.092;2023-04-01T02:12:10;100307.00;;;7.40
12918;BMP180;6526;54.312;13.092;2023-04-01T02:14:55;100334.00;;;7.30
12918;BMP180;6526;54.312;13.092;2023-04-01T02:17:25;100320.00;;;7.30
12918;BMP180;6526;54.312;13.092;2023-04-01T02:19:56;100333.00;;;7.30
12918;BMP180;6526;54.312;13.092;2023-04-01T02:22:26;100319.00;;;7.30
12918;BMP180;6526;54.312;13.092;2023-04-01T02:24:59;100318.00;;;7.30
12918;BMP180;6526;54.312;13.092;2023-04-01T02:27:26;100335.00;;;7.30
12918;BMP180;6526;54.312;13.092;2023-04-01T02:29:53;100336.00;;;7.30
12918;BMP180;6526;54.312;13.092;2023-04-01T02:32:20;100339.00;;;7.40
12918;BMP180;6526;54.312;13.092;2023-04-01T02:34:47;100346.00;;;7.40
12918;BMP180;6526;54.312;13.092;2023-04-01T02:37:14;100347.00;;;7.30
12918;BMP180;6526;54.312;13.092;2023-04-01T02:39:40;100344.00;;;7.20
12918;BMP180;6526;54.312;13.092;2023-04-01T02:42:08;100338.00;;;7.30
12918;BMP180;6526;54.312;13.092;2023-04-01T02:44:34;100346.00;;;7.30
12918;BMP180;6526;54.312;13.092;2023-04-01T02:47:00;100351.00;;;7.30
12918;BMP180;6526;54.312;13.092;2023-04-01T02:49:27;100354.00;;;7.30
12918;BMP180;6526;54.312;13.092;2023-04-01T02:51:53;100343.00;;;7.30
12918;BMP180;6526;54.312;13.092;2023-04-01T02:54:19;100358.00;;;7.30
12918;BMP180;6526;54.312;13.092;2023-04-01T02:56:45;100298.00;;;7.30
12918;BMP180;6526;54.312;13.092;2023-04-01T02:59:11;100357.00;;;7.30
12918;BMP180;6526;54.312;13.092;2023-04-01T03:01:38;100367.00;;;7.30
12918;BMP180;6526;54.312;13.092;2023-04-01T03:04:04;100365.00;;;7.30
12918;BMP180;6526;54.312;13.092;2023-04-01T03:06:30;100368.00;;;7.30
12918;BMP180;6526;54.312;13.092;2023-04-01T03:08:56;100365.00;;;7.40
12918;BMP180;6526;54.312;13.092;2023-04-01T03:11:23;100370.00;;;7.30
12918;BMP180;6526;54.312;13.092;2023-04-01T03:13:49;100377.00;;;7.20
12918;BMP180;6526;54.312;13.092;2023-04-01T03:16:15;100369.00;;;7.30
12918;BMP180;6526;54.312;13.092;2023-04-01T03:18:41;100367.00;;;7.30
12918;BMP180;6526;54.312;13.092;2023-04-01T03:21:20;100381.00;;;7.30
12918;BMP180;6526;54.312;13.092;2023-04-01T03:23:46;100376.00;;;7.40
12918;BMP180;6526;54.312;13.092;2023-04-01T03:26:12;100386.00;;;7.40
12918;BMP180;6526;54.312;13.092;2023-04-01T03:28:39;100380.00;;;7.40
12918;BMP180;6526;54.312;13.092;2023-04-01T03:31:05;100382.00;;;7.40
12918;BMP180;6526;54.312;13.092;2023-04-01T03:33:32;100384.00;;;7.40
12918;BMP180;6526;54.312;13.092;2023-04-01T03:35:58;100385.00;;;7.40
12918;BMP180;6526;54.312;13.092;2023-04-01T03:38:24;100386.00;;;7.40
12918;BMP180;6526;54.312;13.092;2023-04-01T03:40:50;100379.00;;;7.40
12918;BMP180;6526;54.312;13.092;2023-04-01T03:43:16;100386.00;;;7.30
12918;BMP180;6526;54.312;13.092;2023-04-01T03:45:47;100379.00;;;7.30
12918;BMP180;6526;54.312;13.092;2023-04-01T03:48:14;100392.00;;;7.30
12918;BMP180;6526;54.312;13.092;2023-04-01T03:50:40;100399.00;;;7.30
12918;BMP180;6526;54.312;13.092;2023-04-01T03:53:06;100396.00;;;7.40
12918;BMP180;6526;54.312;13.092;2023-04-01T03:55:33;100404.00;;;7.50
12918;BMP180;6526;54.312;13.092;2023-04-01T03:57:59;100408.00;;;7.50
12918;BMP180;6526;54.312;13.092;2023-04-01T04:00:25;100402.00;;;7.50
12918;BMP180;6526;54.312;13.092;2023-04-01T04:02:51;100405.00;;;7.40
12918;BMP180;6526;54.312;13.092;2023-04-01T04:05:17;100415.00;;;7.30
12918;BMP180;6526;54.312;13.092;2023-04-01T04:07:44;100402.00;;;7.30
12918;BMP180;6526;54.312;13.092;2023-04-01T04:10:10;100415.00;;;7.30
12918;BMP180;6526;54.312;13.092;2023-04-01T04:12:36;100414.00;;;7.30
12918;BMP180;6526;54.312;13.092;2023-04-01T04:15:02;100422.00;;;7.30
12918;BMP180;6526;54.312;13.092;2023-04-01T04:17:28;100422.00;;;7.30
12918;BMP180;6526;54.312;13.092;2023-04-01T04:19:54;100421.00;;;7.30
12918;BMP180;6526;54.312;13.092;2023-04-01T04:22:20;100429.00;;;7.40
12918;BMP180;6526;54.312;13.092;2023-04-01T04:24:46;100423.00;;;7.40
12918;BMP180;6526;54.312;13.092;2023-04-01T04:27:12;100433.00;;;7.40
12918;BMP180;6526;54.312;13.092;2023-04-01T04:29:38;100435.00;;;7.40
12918;BMP180;6526;54.312;13.092;2023-04-01T04:32:04;100437.00;;;7.30
12918;BMP180;6526;54.312;13.092;2023-04-01T04:34:31;100435.00;;;7.30
12918;BMP180;6526;54.312;13.092;2023-04-01T04:36:57;100445.00;;;7.30
12918;BMP180;6526;54.312;13.092;2023-04-01T04:39:23;100443.00;;;7.20
12918;BMP180;6526;54.312;13.092;2023-04-01T04:41:49;100436.00;;;7.20
12918;BMP180;6526;54.312;13.092;2023-04-01T04:44:15;100445.00;;;7.20
12918;BMP180;6526;54.312;13.092;2023-04-01T04:46:41;100445.00;;;7.20
12918;BMP180;6526;54.312;13.092;2023-04-01T04:49:07;100456.00;;;7.30
12918;BMP180;6526;54.312;13.092;2023-04-01T04:51:33;100451.00;;;7.20
12918;BMP180;6526;54.312;13.092;2023-04-01T04:54:02;100463.00;;;7.30
12918;BMP180;6526;54.312;13.092;2023-04-01T04:56:28;100453.00;;;7.30
12918;BMP180;6526;54.312;13.092;2023-04-01T04:58:54;100458.00;;;7.30
12918;BMP180;6526;54.312;13.092;2023-04-01T05:01:20;100467.00;;;7.30
12918;BMP180;6526;54.312;13.092;2023-04-01T05:03:47;100468.00;;;7.20
12918;BMP180;6526;54.312;13.092;2023-04-01T05:06:14;100470.00;;;7.20
12918;BMP180;6526;54.312;13.092;2023-04-01T05:08:41;100469.00;;;7.20
12918;BMP180;6526;54.312;13.092;2023-04-01T05:11:17;100481.00;;;7.20
12918;BMP180;6526;54.312;13.092;2023-04-01T05:13:44;100472.00;;;7.20
12918;BMP180;6526;54.312;13.092;2023-04-01T05:16:12;100476.00;;;7.20
12918;BMP180;6526;54.312;13.092;2023-04-01T05:18:39;100473.00;;;7.30
12918;BMP180;6526;54.312;13.092;2023-04-01T05:21:08;100476.00;;;7.20
12918;BMP180;6526;54.312;13.092;2023-04-01T05:23:35;100480.00;;;7.20
12918;BMP180;6526;54.312;13.092;2023-04-01T05:26:06;100487.00;;;7.10
12918;BMP180;6526;54.312;13.092;2023-04-01T05:28:32;100487.00;;;7.20
12918;BMP180;6526;54.312;13.092;2023-04-01T05:31:02;100491.00;;;7.20
12918;BMP180;6526;54.312;13.092;2023-04-01T05:33:29;100482.00;;;7.20
12918;BMP180;6526;54.312;13.092;2023-04-01T05:35:55;100471.00;;;7.20
12918;BMP180;6526;54.312;13.092;2023-04-01T05:38:22;100486.00;;;7.10
12918;BMP180;6526;54.312;13.092;2023-04-01T05:40:48;100505.00;;;7.10
12918;BMP180;6526;54.312;13.092;2023-04-01T05:43:14;100505.00;;;7.10
12918;BMP180;6526;54.312;13.092;2023-04-01T05:45:40;100505.00;;;7.10
12918;BMP180;6526;54.312;13.092;2023-04-01T05:48:06;100504.00;;;7.10
12918;BMP180;6526;54.312;13.092;2023-04-01T05:50:32;100516.00;;;7.10
12918;BMP180;6526;54.312;13.092;2023-04-01T05:52:59;100513.00;;;7.10
12918;BMP180;6526;54.312;13.092;2023-04-01T05:55:25;100516.00;;;7.10
12918;BMP180;6526;54.312;13.092;2023-04-01T05:57:51;100524.00;;;7.10
12918;BMP180;6526;54.312;13.092;2023-04-01T06:00:17;100525.00;;;7.00
12918;BMP180;6526;54.312;13.092;2023-04-01T06:02:45;100529.00;;;7.10
12918;BMP180;6526;54.312;13.092;2023-04-01T06:05:14;100532.00;;;7.10
12918;BMP180;6526;54.312;13.092;2023-04-01T06:07:40;100529.00;;;7.20
12918;BMP180;6526;54.312;13.092;2023-04-01T06:10:14;100547.00;;;7.10
12918;BMP180;6526;54.312;13.092;2023-04-01T06:12:49;100529.00;;;7.10
12918;BMP180;6526;54.312;13.092;2023-04-01T06:15:24;100545.00;;;7.10
12918;BMP180;6526;54.312;13.092;2023-04-01T06:23:05;100548.00;;;7.00
12918;BMP180;6526;54.312;13.092;2023-04-01T06:28:19;100557.00;;;7.00
12918;BMP180;6526;54.312;13.092;2023-04-01T06:31:10;100563.00;;;7.10
12918;BMP180;6526;54.312;13.092;2023-04-01T06:34:00;100562.00;;;7.10
12918;BMP180;6526;54.312;13.092;2023-04-01T06:39:27;100576.00;;;7.10
12918;BMP180;6526;54.312;13.092;2023-04-01T06:42:22;100589.00;;;7.10
12918;BMP180;6526;54.312;13.092;2023-04-01T06:44:56;100578.00;;;7.00
12918;BMP180;6526;54.312;13.092;2023-04-01T06:47:48;100580.00;;;7.00
12918;BMP180;6526;54.312;13.092;2023-04-01T06:50:29;100599.00;;;6.90
12918;BMP180;6526;54.312;13.092;2023-04-01T06:53:00;100596.00;;;7.00
12918;BMP180;6526;54.312;13.092;2023-04-01T06:55:34;100606.00;;;6.90
12918;BMP180;6526;54.312;13.092;2023-04-01T06:58:04;100600.00;;;7.00
12918;BMP180;6526;54.312;13.092;2023-04-01T07:00:40;100604.00;;;6.90
12918;BMP180;6526;54.312;13.092;2023-04-01T07:03:34;100599.00;;;6.80
12918;BMP180;6526;54.312;13.092;2023-04-01T07:06:08;100603.00;;;6.90
12918;BMP180;6526;54.312;13.092;2023-04-01T07:08:38;100623.00;;;6.90
12918;BMP180;6526;54.312;13.092;2023-04-01T07:11:11;100623.00;;;6.90
12918;BMP180;6526;54.312;13.092;2023-04-01T07:13:55;100625.00;;;7.00
12918;BMP180;6526;54.312;13.092;2023-04-01T07:16:58;100642.00;;;7.00
12918;BMP180;6526;54.312;13.092;2023-04-01T07:22:33;100642.00;;;6.90
12918;BMP180;6526;54.312;13.092;2023-04-01T07:25:21;100639.00;;;6.90
12918;BMP180;6526;54.312;13.092;2023-04-01T07:27:48;100643.00;;;6.80
12918;BMP180;6526;54.312;13.092;2023-04-01T07:30:18;100641.00;;;6.80
12918;BMP180;6526;54.312;13.092;2023-04-01T07:33:00;100647.00;;;6.80
12918;BMP180;6526;54.312;13.092;2023-04-01T07:35:55;100658.00;;;6.90
12918;BMP180;6526;54.312;13.092;2023-04-01T07:44:01;100654.00;;;6.90
12918;BMP180;6526;54.312;13.092;2023-04-01T07:49:35;100655.00;;;6.90
12918;BMP180;6526;54.312;13.092;2023-04-01T07:52:08;100679.00;;;6.80
12918;BMP180;6526;54.312;13.092;2023-04-01T07:54:52;100673.00;;;6.80
12918;BMP180;6526;54.312;13.092;2023-04-01T08:00:29;100681.00;;;6.70
12918;BMP180;6526;54.312;13.092;2023-04-01T08:03:07;100695.00;;;6.60
12918;BMP180;6526;54.312;13.092;2023-04-01T08:08:17;100701.00;;;6.80
12918;BMP180;6526;54.312;13.092;2023-04-01T08:18:56;100710.00;;;6.80
12918;BMP180;6526;54.312;13.092;2023-04-01T08:21:47;100720.00;;;6.80
12918;BMP180;6526;54.312;13.092;2023-04-01T08:24:39;100721.00;;;6.80
12918;BMP180;6526;54.312;13.092;2023-04-01T08:30:23;100728.00;;;6.80
12918;BMP180;6526;54.312;13.092;2023-04-01T08:32:57;100734.00;;;6.80
12918;BMP180;6526;54.312;13.092;2023-04-01T08:35:29;100728.00;;;6.80
12918;BMP180;6526;54.312;13.092;2023-04-01T08:38:05;100733.00;;;6.80
12918;BMP180;6526;54.312;13.092;2023-04-01T08:40:51;100751.00;;;6.80
12918;BMP180;6526;54.312;13.092;2023-04-01T08:46:19;100743.00;;;6.80
12918;BMP180;6526;54.312;13.092;2023-04-01T08:49:03;100756.00;;;6.70
12918;BMP180;6526;54.312;13.092;2023-04-01T08:52:01;100762.00;;;6.80
12918;BMP180;6526;54.312;13.092;2023-04-01T09:13:32;100795.00;;;6.80
12918;BMP180;6526;54.312;13.092;2023-04-01T09:19:21;100797.00;;;6.70
12918;BMP180;6526;54.312;13.092;2023-04-01T09:21:55;100786.00;;;6.70
12918;BMP180;6526;54.312;13.092;2023-04-01T09:24:47;100804.00;;;6.70
12918;BMP180;6526;54.312;13.092;2023-04-01T09:30:39;100805.00;;;6.80
12918;BMP180;6526;54.312;13.092;2023-04-01T09:36:28;100816.00;;;6.90
12918;BMP180;6526;54.312;13.092;2023-04-01T09:39:37;100812.00;;;6.90
12918;BMP180;6526;54.312;13.092;2023-04-01T09:42:29;100818.00;;;6.80
12918;BMP180;6526;54.312;13.092;2023-04-01T09:45:07;100819.00;;;6.90
12918;BMP180;6526;54.312;13.092;2023-04-01T09:50:27;100836.00;;;6.80
12918;BMP180;6526;54.312;13.092;2023-04-01T09:53:07;100837.00;;;6.80
12918;BMP180;6526;54.312;13.092;2023-04-01T10:22:37;100882.00;;;6.80
12918;BMP180;6526;54.312;13.092;2023-04-01T10:33:38;100885.00;;;6.90
12918;BMP180;6526;54.312;13.092;2023-04-01T11:00:55;100910.00;;;6.90
12918;BMP180;6526;54.312;13.092;2023-04-01T11:03:39;100901.00;;;6.80
12918;BMP180;6526;54.312;13.092;2023-04-01T11:15:16;100918.00;;;6.80
12918;BMP180;6526;54.312;13.092;2023-04-01T11:18:02;100916.00;;;6.80
12918;BMP180;6526;54.312;13.092;2023-04-01T11:21:01;100925.00;;;6.80
12918;BMP180;6526;54.312;13.092;2023-04-01T11:29:40;100943.00;;;6.80
12918;BMP180;6526;54.312;13.092;2023-04-01T11:41:16;100955.00;;;6.90
12918;BMP180;6526;54.312;13.092;2023-04-01T11:44:16;100958.00;;;6.80
12918;BMP180;6526;54.312;13.092;2023-04-01T11:52:55;100972.00;;;6.90
12918;BMP180;6526;54.312;13.092;2023-04-01T11:55:46;100969.00;;;6.80
12918;BMP180;6526;54.312;13.092;2023-04-01T11:58:41;100983.00;;;6.90
12918;BMP180;6526;54.312;13.092;2023-04-01T12:01:47;100976.00;;;6.90
12918;BMP180;6526;54.312;13.092;2023-04-01T12:04:36;100982.00;;;7.00
12918;BMP180;6526;54.312;13.092;2023-04-01T12:07:24;100995.00;;;6.90
12918;BMP180;6526;54.312;13.092;2023-04-01T12:10:02;100995.00;;;6.80
12918;BMP180;6526;54.312;13.092;2023-04-01T12:32:35;101017.00;;;7.00
12918;BMP180;6526;54.312;13.092;2023-04-01T12:35:26;101011.00;;;7.00
12918;BMP180;6526;54.312;13.092;2023-04-01T12:38:10;101026.00;;;7.00
12918;BMP180;6526;54.312;13.092;2023-04-01T12:41:12;101033.00;;;7.00
12918;BMP180;6526;54.312;13.092;2023-04-01T12:49:55;101039.00;;;6.90
12918;BMP180;6526;54.312;13.092;2023-04-01T12:55:45;101054.00;;;6.90
12918;BMP180;6526;54.312;13.092;2023-04-01T12:58:45;101060.00;;;7.00
12918;BMP180;6526;54.312;13.092;2023-04-01T13:05:02;101068.00;;;6.80
12918;BMP180;6526;54.312;13.092;2023-04-01T13:07:52;101066.00;;;6.90
12918;BMP180;6526;54.312;13.092;2023-04-01T13:13:49;101065.00;;;6.80
12918;BMP180;6526;54.312;13.092;2023-04-01T13:18:56;101079.00;;;6.90
12918;BMP180;6526;54.312;13.092;2023-04-01T13:24:29;101082.00;;;6.80
12918;BMP180;6526;54.312;13.092;2023-04-01T13:27:23;101093.00;;;6.90
12918;BMP180;6526;54.312;13.092;2023-04-01T13:30:02;101089.00;;;7.00
12918;BMP180;6526;54.312;13.092;2023-04-01T13:38:50;101114.00;;;6.80
12918;BMP180;6526;54.312;13.092;2023-04-01T13:44:32;101113.00;;;6.80
12918;BMP180;6526;54.312;13.092;2023-04-01T13:58:03;101135.00;;;6.80
12918;BMP180;6526;54.312;13.092;2023-04-01T14:00:48;101139.00;;;6.80
12918;BMP180;6526;54.312;13.092;2023-04-01T14:03:32;101139.00;;;6.80
12918;BMP180;6526;54.312;13.092;2023-04-01T14:06:20;101133.00;;;6.80
12918;BMP180;6526;54.312;13.092;2023-04-01T14:20:00;101161.00;;;6.70
12918;BMP180;6526;54.312;13.092;2023-04-01T14:45:20;101176.00;;;6.80
12918;BMP180;6526;54.312;13.092;2023-04-01T14:48:05;101179.00;;;6.80
12918;BMP180;6526;54.312;13.092;2023-04-01T14:50:49;101185.00;;;6.80
12918;BMP180;6526;54.312;13.092;2023-04-01T14:55:54;101178.00;;;6.90
12918;BMP180;6526;54.312;13.092;2023-04-01T14:58:47;101200.00;;;6.80
12918;BMP180;6526;54.312;13.092;2023-04-01T15:03:56;101200.00;;;6.80
12918;BMP180;6526;54.312;13.092;2023-04-01T15:09:42;101207.00;;;6.90
12918;BMP180;6526;54.312;13.092;2023-04-01T15:23:44;101243.00;;;7.00
12918;BMP180;6526;54.312;13.092;2023-04-01T15:26:33;101236.00;;;6.90
12918;BMP180;6526;54.312;13.092;2023-04-01T15:32:24;101243.00;;;6.80
12918;BMP180;6526;54.312;13.092;2023-04-01T15:37:58;101240.00;;;6.90
12918;BMP180;6526;54.312;13.092;2023-04-01T15:40:53;101254.00;;;6.80
12918;BMP180;6526;54.312;13.092;2023-04-01T15:57:28;101288.00;;;6.80
12918;BMP180;6526;54.312;13.092;2023-04-01T16:03:31;101296.00;;;6.80
12918;BMP180;6526;54.312;13.092;2023-04-01T16:09:00;101311.00;;;6.80
12918;BMP180;6526;54.312;13.092;2023-04-01T16:17:25;101309.00;;;6.90
12918;BMP180;6526;54.312;13.092;2023-04-01T16:25:45;101342.00;;;6.70
12918;BMP180;6526;54.312;13.092;2023-04-01T16:28:34;101349.00;;;6.60
12918;BMP180;6526;54.312;13.092;2023-04-01T16:37:01;101368.00;;;6.60
12918;BMP180;6526;54.312;13.092;2023-04-01T16:53:47;101370.00;;;6.50
12918;BMP180;6526;54.312;13.092;2023-04-01T16:56:24;101380.00;;;6.40
12918;BMP180;6526;54.312;13.092;2023-04-01T16:59:04;101381.00;;;6.40
12918;BMP180;6526;54.312;13.092;2023-04-01T17:02:00;101386.00;;;6.40
12918;BMP180;6526;54.312;13.092;2023-04-01T17:04:38;101391.00;;;6.40
12918;BMP180;6526;54.312;13.092;2023-04-01T17:10:04;101409.00;;;6.50
12918;BMP180;6526;54.312;13.092;2023-04-01T17:18:47;101423.00;;;6.50
12918;BMP180;6526;54.312;13.092;2023-04-01T17:24:28;101445.00;;;6.40
12918;BMP180;6526;54.312;13.092;2023-04-01T17:27:17;101441.00;;;6.40
12918;BMP180;6526;54.312;13.092;2023-04-01T17:30:05;101440.00;;;6.50
12918;BMP180;6526;54.312;13.092;2023-04-01T17:32:53;101467.00;;;6.60
12918;BMP180;6526;54.312;13.092;2023-04-01T17:35:26;101460.00;;;6.50
12918;BMP180;6526;54.312;13.092;2023-04-01T17:38:06;101466.00;;;6.50
12918;BMP180;6526;54.312;13.092;2023-04-01T17:40:46;101476.00;;;6.50
12918;BMP180;6526;54.312;13.092;2023-04-01T17:46:47;101469.00;;;6.30
12918;BMP180;6526;54.312;13.092;2023-04-01T17:54:55;101496.00;;;6.50
12918;BMP180;6526;54.312;13.092;2023-04-01T17:57:28;101446.00;;;6.50
12918;BMP180;6526;54.312;13.092;2023-04-01T18:05:20;101518.00;;;6.60
12918;BMP180;6526;54.312;13.092;2023-04-01T18:07:52;101525.00;;;6.60
12918;BMP180;6526;54.312;13.092;2023-04-01T18:13:58;101520.00;;;6.50
12918;BMP180;6526;54.312;13.092;2023-04-01T18:19:40;101547.00;;;6.50
12918;BMP180;6526;54.312;13.092;2023-04-01T18:27:28;101552.00;;;6.50
12918;BMP180;6526;54.312;13.092;2023-04-01T18:30:17;101553.00;;;6.50
12918;BMP180;6526;54.312;13.092;2023-04-01T18:32:55;101561.00;;;6.40
12918;BMP180;6526;54.312;13.092;2023-04-01T18:38:23;101569.00;;;6.30
12918;BMP180;6526;54.312;13.092;2023-04-01T18:44:03;101581.00;;;6.40
12918;BMP180;6526;54.312;13.092;2023-04-01T18:47:07;101531.00;;;6.40
12918;BMP180;6526;54.312;13.092;2023-04-01T18:52:42;101598.00;;;6.40
12918;BMP180;6526;54.312;13.092;2023-04-01T18:55:32;101614.00;;;6.40
12918;BMP180;6526;54.312;13.092;2023-04-01T18:58:44;101606.00;;;6.40
12918;BMP180;6526;54.312;13.092;2023-04-01T19:01:35;101563.00;;;6.40
12918;BMP180;6526;54.312;13.092;2023-04-01T19:07:41;101623.00;;;6.40
12918;BMP180;6526;54.312;13.092;2023-04-01T19:12:48;101620.00;;;6.30
12918;BMP180;6526;54.312;13.092;2023-04-01T19:21:39;101627.00;;;6.30
12918;BMP180;6526;54.312;13.092;2023-04-01T19:29:49;101647.00;;;6.20
12918;BMP180;6526;54.312;13.092;2023-04-01T19:32:52;101635.00;;;6.20
12918;BMP180;6526;54.312;13.092;2023-04-01T19:35:58;101660.00;;;6.30
12918;BMP180;6526;54.312;13.092;2023-04-01T19:39:23;101660.00;;;6.30
12918;BMP180;6526;54.312;13.092;2023-04-01T19:47:16;101667.00;;;6.20
12918;BMP180;6526;54.312;13.092;2023-04-01T19:52:33;101677.00;;;6.10
12918;BMP180;6526;54.312;13.092;2023-04-01T19:57:51;101690.00;;;6.20
12918;BMP180;6526;54.312;13.092;2023-04-01T20:00:51;101689.00;;;6.20
12918;BMP180;6526;54.312;13.092;2023-04-01T20:03:25;101693.00;;;6.20
12918;BMP180;6526;54.312;13.092;2023-04-01T20:09:05;101697.00;;;6.10
12918;BMP180;6526;54.312;13.092;2023-04-01T20:19:48;101716.00;;;6.00
12918;BMP180;6526;54.312;13.092;2023-04-01T20:25:23;101720.00;;;6.00
12918;BMP180;6526;54.312;13.092;2023-04-01T20:28:05;101726.00;;;6.00
12918;BMP180;6526;54.312;13.092;2023-04-01T20:36:16;101734.00;;;6.00
12918;BMP180;6526;54.312;13.092;2023-04-01T20:41:44;101752.00;;;6.10
12918;BMP180;6526;54.312;13.092;2023-04-01T20:44:15;101754.00;;;6.20
12918;BMP180;6526;54.312;13.092;2023-04-01T20:49:45;101765.00;;;6.10
12918;BMP180;6526;54.312;13.092;2023-04-01T20:55:08;101755.00;;;6.00
12918;BMP180;6526;54.312;13.092;2023-04-01T21:00:51;101769.00;;;6.10
12918;BMP180;6526;54.312;13.092;2023-04-01T21:03:52;101755.00;;;6.10
12918;BMP180;6526;54.312;13.092;2023-04-01T21:09:26;101770.00;;;6.10
12918;BMP180;6526;54.312;13.092;2023-04-01T21:14:54;101795.00;;;6.00
12918;BMP180;6526;54.312;13.092;2023-04-01T21:22:55;101802.00;;;6.00
12918;BMP180;6526;54.312;13.092;2023-04-01T21:28:59;101796.00;;;6.00
12918;BMP180;6526;54.312;13.092;2023-04-01T21:31:32;101796.00;;;6.00
12918;BMP180;6526;54.312;13.092;2023-04-01T21:37:29;101808.00;;;6.00
12918;BMP180;6526;54.312;13.092;2023-04-01T21:46:03;101805.00;;;6.00
12918;BMP180;6526;54.312;13.092;2023-04-01T22:10:51;101839.00;;;6.20
12918;BMP180;6526;54.312;13.092;2023-04-01T22:18:48;101845.00;;;6.10
12918;BMP180;6526;54.312;13.092;2023-04-01T22:21:32;101860.00;;;6.20
12918;BMP180;6526;54.312;13.092;2023-04-01T22:24:17;101858.00;;;6.20
12918;BMP180;6526;54.312;13.092;2023-04-01T22:27:10;101863.00;;;6.30
12918;BMP180;6526;54.312;13.092;2023-04-01T22:36:02;101865.00;;;6.30
12918;BMP180;6526;54.312;13.092;2023-04-01T22:38:38;101877.00;;;6.30
12918;BMP180;6526;54.312;13.092;2023-04-01T22:41:28;101886.00;;;6.30
12918;BMP180;6526;54.312;13.092;2023-04-01T22:43:57;101881.00;;;6.30
12918;BMP180;6526;54.312;13.092;2023-04-01T22:49:15;101892.00;;;6.30
12918;BMP180;6526;54.312;13.092;2023-04-01T22:51:54;101893.00;;;6.30
12918;BMP180;6526;54.312;13.092;2023-04-01T22:54:43;101896.00;;;6.30
12918;BMP180;6526;54.312;13.092;2023-04-01T23:03:33;101918.00;;;6.20
12918;BMP180;6526;54.312;13.092;2023-04-01T23:05:36;101911.00;;;6.40
12918;BMP180;6526;54.312;13.092;2023-04-01T23:08:44;101902.00;;;6.30
12918;BMP180;6526;54.312;13.092;2023-04-01T23:11:32;101905.00;;;6.30
12918;BMP180;6526;54.312;13.092;2023-04-01T23:17:01;101908.00;;;6.30
12918;BMP180;6526;54.312;13.092;2023-04-01T23:22:39;101923.00;;;6.30
12918;BMP180;6526;54.312;13.092;2023-04-01T23:25:33;101915.00;;;6.40
12918;BMP180;6526;54.312;13.092;2023-04-01T23:28:32;101916.00;;;6.40
12918;BMP180;6526;54.312;13.092;2023-04-01T23:31:03;101903.00;;;6.40
12918;BMP180;6526;54.312;13.092;2023-04-01T23:33:44;101929.00;;;6.40
12918;BMP180;6526;54.312;13.092;2023-04-01T23:36:12;101937.00;;;6.30
12918;BMP180;6526;54.312;13.092;2023-04-01T23:38:41;101931.00;;;6.40
12918;BMP180;6526;54.312;13.092;2023-04-01T23:41:16;101923.00;;;6.40
12918;BMP180;6526;54.312;13.092;2023-04-01T23:43:45;101938.00;;;6.40
12918;BMP180;6526;54.312;13.092;2023-04-01T23:46:15;101940.00;;;6.40
12918;BMP180;6526;54.312;13.092;2023-04-01T23:48:43;101938.00;;;6.40
12918;BMP180;6526;54.312;13.092;2023-04-01T23:53:47;101953.00;;;6.40
12918;BMP180;6526;54.312;13.092;2023-04-01T23:56:17;101963.00;;;6.40